sensor_id;sensor_type;location;lat;lon;timestamp;P1;durP1;ratioP1;P2;durP2;ratioP2
34459;SDS011;20704;51.260;22.558;2022-09-03T00:10:48;2.92;;;1.38;;
34459;SDS011;20704;51.260;22.558;2022-09-03T00:13:26;3.47;;;1.70;;
34459;SDS011;20704;51.260;22.558;2022-09-03T00:15:57;5.38;;;2.00;;
34459;SDS011;20704;51.260;22.558;2022-09-03T00:18:27;3.33;;;1.93;;
34459;SDS011;20704;51.260;22.558;2022-09-03T00:20:59;3.58;;;1.70;;
34459;SDS011;20704;51.260;22.558;2022-09-03T00:23:35;3.25;;;1.80;;
34459;SDS011;20704;51.260;22.558;2022-09-03T00:28:41;3.80;;;1.70;;
34459;SDS011;20704;51.260;22.558;2022-09-03T00:31:13;5.07;;;2.70;;
34459;SDS011;20704;51.260;22.558;2022-09-03T00:33:45;6.05;;;1.58;;
34459;SDS011;20704;51.260;22.558;2022-09-03T00:36:17;4.10;;;1.90;;
34459;SDS011;20704;51.260;22.558;2022-09-03T00:38:50;6.75;;;1.85;;
34459;SDS011;20704;51.260;22.558;2022-09-03T00:44:37;3.03;;;1.77;;
34459;SDS011;20704;51.260;22.558;2022-09-03T00:55:12;3.95;;;2.25;;
34459;SDS011;20704;51.260;22.558;2022-09-03T00:57:54;3.08;;;1.80;;
34459;SDS011;20704;51.260;22.558;2022-09-03T01:00:45;2.88;;;1.58;;
34459;SDS011;20704;51.260;22.558;2022-09-03T01:03:25;5.60;;;1.80;;
34459;SDS011;20704;51.260;22.558;2022-09-03T01:14:03;6.03;;;1.80;;
34459;SDS011;20704;51.260;22.558;2022-09-03T01:16:51;3.13;;;1.73;;
34459;SDS011;20704;51.260;22.558;2022-09-03T01:30:32;8.32;;;2.28;;
34459;SDS011;20704;51.260;22.558;2022-09-03T01:33:06;4.32;;;1.70;;
34459;SDS011;20704;51.260;22.558;2022-09-03T01:36:02;5.65;;;2.10;;
34459;SDS011;20704;51.260;22.558;2022-09-03T01:41:13;4.10;;;2.10;;
34459;SDS011;20704;51.260;22.558;2022-09-03T01:44:22;3.75;;;1.92;;
34459;SDS011;20704;51.260;22.558;2022-09-03T01:49:46;3.65;;;1.70;;
34459;SDS011;20704;51.260;22.558;2022-09-03T02:00:43;4.30;;;2.00;;
34459;SDS011;20704;51.260;22.558;2022-09-03T02:03:13;3.38;;;2.00;;
34459;SDS011;20704;51.260;22.558;2022-09-03T02:05:41;5.32;;;2.13;;
34459;SDS011;20704;51.260;22.558;2022-09-03T02:08:08;9.10;;;3.38;;
34459;SDS011;20704;51.260;22.558;2022-09-03T02:16:30;5.22;;;2.05;;
34459;SDS011;20704;51.260;22.558;2022-09-03T02:19:00;4.68;;;2.47;;
34459;SDS011;20704;51.260;22.558;2022-09-03T02:21:32;5.78;;;2.08;;
34459;SDS011;20704;51.260;22.558;2022-09-03T02:23:59;4.20;;;1.80;;
34459;SDS011;20704;51.260;22.558;2022-09-03T02:26:27;4.80;;;2.25;;
34459;SDS011;20704;51.260;22.558;2022-09-03T02:28:54;3.55;;;1.85;;
34459;SDS011;20704;51.260;22.558;2022-09-03T02:31:22;3.88;;;1.80;;
34459;SDS011;20704;51.260;22.558;2022-09-03T02:33:48;4.45;;;1.88;;
34459;SDS011;20704;51.260;22.558;2022-09-03T02:36:16;3.58;;;1.95;;
34459;SDS011;20704;51.260;22.558;2022-09-03T02:38:45;4.75;;;2.53;;
34459;SDS011;20704;51.260;22.558;2022-09-03T02:41:12;5.15;;;2.17;;
34459;SDS011;20704;51.260;22.558;2022-09-03T02:43:49;4.43;;;1.73;;
34459;SDS011;20704;51.260;22.558;2022-09-03T02:46:23;5.13;;;1.77;;
34459;SDS011;20704;51.260;22.558;2022-09-03T02:48:54;4.22;;;1.95;;
34459;SDS011;20704;51.260;22.558;2022-09-03T02:51:20;6.03;;;2.15;;
34459;SDS011;20704;51.260;22.558;2022-09-03T02:53:47;2.88;;;1.90;;
34459;SDS011;20704;51.260;22.558;2022-09-03T02:56:13;8.25;;;2.25;;
34459;SDS011;20704;51.260;22.558;2022-09-03T02:58:39;5.00;;;2.13;;
34459;SDS011;20704;51.260;22.558;2022-09-03T03:01:05;3.55;;;1.67;;
34459;SDS011;20704;51.260;22.558;2022-09-03T03:03:32;3.25;;;1.58;;
34459;SDS011;20704;51.260;22.558;2022-09-03T03:05:59;12.07;;;2.67;;
34459;SDS011;20704;51.260;22.558;2022-09-03T03:10:55;5.60;;;2.00;;
34459;SDS011;20704;51.260;22.558;2022-09-03T03:13:23;3.38;;;2.00;;
34459;SDS011;20704;51.260;22.558;2022-09-03T03:15:50;3.88;;;2.13;;
34459;SDS011;20704;51.260;22.558;2022-09-03T03:18:16;3.80;;;2.13;;
34459;SDS011;20704;51.260;22.558;2022-09-03T03:20:42;4.00;;;2.03;;
34459;SDS011;20704;51.260;22.558;2022-09-03T03:23:09;4.40;;;2.10;;
34459;SDS011;20704;51.260;22.558;2022-09-03T03:25:36;4.72;;;2.55;;
34459;SDS011;20704;51.260;22.558;2022-09-03T03:28:03;6.32;;;2.00;;
34459;SDS011;20704;51.260;22.558;2022-09-03T03:30:30;5.90;;;2.65;;
34459;SDS011;20704;51.260;22.558;2022-09-03T03:32:57;3.83;;;2.65;;
34459;SDS011;20704;51.260;22.558;2022-09-03T03:35:23;5.97;;;2.33;;
34459;SDS011;20704;51.260;22.558;2022-09-03T03:37:50;4.75;;;2.20;;
34459;SDS011;20704;51.260;22.558;2022-09-03T03:40:16;4.05;;;2.08;;
34459;SDS011;20704;51.260;22.558;2022-09-03T03:42:44;5.78;;;2.53;;
34459;SDS011;20704;51.260;22.558;2022-09-03T03:45:10;3.70;;;2.30;;
34459;SDS011;20704;51.260;22.558;2022-09-03T03:47:36;5.13;;;2.65;;
34459;SDS011;20704;51.260;22.558;2022-09-03T03:50:03;5.07;;;2.20;;
34459;SDS011;20704;51.260;22.558;2022-09-03T03:52:29;8.45;;;2.55;;
34459;SDS011;20704;51.260;22.558;2022-09-03T03:54:55;4.70;;;2.30;;
34459;SDS011;20704;51.260;22.558;2022-09-03T03:57:21;4.18;;;2.40;;
34459;SDS011;20704;51.260;22.558;2022-09-03T03:59:48;4.80;;;2.60;;
34459;SDS011;20704;51.260;22.558;2022-09-03T04:02:15;7.47;;;2.50;;
34459;SDS011;20704;51.260;22.558;2022-09-03T04:04:41;4.00;;;2.10;;
34459;SDS011;20704;51.260;22.558;2022-09-03T04:07:07;3.47;;;1.70;;
34459;SDS011;20704;51.260;22.558;2022-09-03T04:09:34;5.45;;;2.65;;
34459;SDS011;20704;51.260;22.558;2022-09-03T04:12:00;4.80;;;2.08;;
34459;SDS011;20704;51.260;22.558;2022-09-03T04:14:28;5.28;;;1.92;;
34459;SDS011;20704;51.260;22.558;2022-09-03T04:16:53;4.82;;;2.72;;
34459;SDS011;20704;51.260;22.558;2022-09-03T04:19:21;5.15;;;2.53;;
34459;SDS011;20704;51.260;22.558;2022-09-03T04:21:48;6.75;;;2.22;;
34459;SDS011;20704;51.260;22.558;2022-09-03T04:24:14;4.38;;;2.30;;
34459;SDS011;20704;51.260;22.558;2022-09-03T04:26:40;6.50;;;2.95;;
34459;SDS011;20704;51.260;22.558;2022-09-03T04:29:07;6.35;;;2.75;;
34459;SDS011;20704;51.260;22.558;2022-09-03T04:31:35;4.90;;;2.08;;
34459;SDS011;20704;51.260;22.558;2022-09-03T04:34:02;5.18;;;2.10;;
34459;SDS011;20704;51.260;22.558;2022-09-03T04:36:31;5.50;;;2.50;;
34459;SDS011;20704;51.260;22.558;2022-09-03T04:38:58;4.47;;;2.40;;
34459;SDS011;20704;51.260;22.558;2022-09-03T04:41:26;4.40;;;2.20;;
34459;SDS011;20704;51.260;22.558;2022-09-03T04:43:54;9.52;;;5.10;;
34459;SDS011;20704;51.260;22.558;2022-09-03T04:46:22;4.63;;;2.80;;
34459;SDS011;20704;51.260;22.558;2022-09-03T04:48:50;10.98;;;4.25;;
34459;SDS011;20704;51.260;22.558;2022-09-03T04:51:19;5.22;;;2.60;;
34459;SDS011;20704;51.260;22.558;2022-09-03T04:53:47;3.92;;;2.25;;
34459;SDS011;20704;51.260;22.558;2022-09-03T04:56:19;8.80;;;2.53;;
34459;SDS011;20704;51.260;22.558;2022-09-03T04:58:48;7.18;;;2.30;;
34459;SDS011;20704;51.260;22.558;2022-09-03T05:01:19;4.22;;;2.25;;
34459;SDS011;20704;51.260;22.558;2022-09-03T05:03:47;5.95;;;2.35;;
34459;SDS011;20704;51.260;22.558;2022-09-03T05:06:13;4.97;;;2.40;;
34459;SDS011;20704;51.260;22.558;2022-09-03T05:08:41;8.02;;;3.35;;
34459;SDS011;20704;51.260;22.558;2022-09-03T05:11:11;5.60;;;2.70;;
34459;SDS011;20704;51.260;22.558;2022-09-03T05:13:37;4.60;;;2.53;;
34459;SDS011;20704;51.260;22.558;2022-09-03T05:16:03;7.97;;;2.75;;
34459;SDS011;20704;51.260;22.558;2022-09-03T05:18:31;6.53;;;2.75;;
34459;SDS011;20704;51.260;22.558;2022-09-03T05:21:00;5.97;;;2.53;;
34459;SDS011;20704;51.260;22.558;2022-09-03T05:23:28;11.63;;;2.47;;
34459;SDS011;20704;51.260;22.558;2022-09-03T05:25:59;4.38;;;2.70;;
34459;SDS011;20704;51.260;22.558;2022-09-03T05:28:27;6.85;;;3.03;;
34459;SDS011;20704;51.260;22.558;2022-09-03T05:31:00;7.53;;;3.20;;
34459;SDS011;20704;51.260;22.558;2022-09-03T05:33:28;4.13;;;2.75;;
34459;SDS011;20704;51.260;22.558;2022-09-03T05:35:59;7.22;;;4.43;;
34459;SDS011;20704;51.260;22.558;2022-09-03T05:38:26;4.60;;;3.55;;
34459;SDS011;20704;51.260;22.558;2022-09-03T05:40:52;9.90;;;3.70;;
34459;SDS011;20704;51.260;22.558;2022-09-03T05:43:18;9.48;;;3.38;;
34459;SDS011;20704;51.260;22.558;2022-09-03T05:45:45;5.20;;;3.65;;
34459;SDS011;20704;51.260;22.558;2022-09-03T05:48:11;6.07;;;3.92;;
34459;SDS011;20704;51.260;22.558;2022-09-03T05:50:37;5.90;;;3.53;;
34459;SDS011;20704;51.260;22.558;2022-09-03T05:53:03;6.35;;;4.70;;
34459;SDS011;20704;51.260;22.558;2022-09-03T05:55:29;8.20;;;3.25;;
34459;SDS011;20704;51.260;22.558;2022-09-03T05:57:55;5.95;;;3.53;;
34459;SDS011;20704;51.260;22.558;2022-09-03T06:00:21;6.97;;;3.72;;
34459;SDS011;20704;51.260;22.558;2022-09-03T06:02:51;9.23;;;3.63;;
34459;SDS011;20704;51.260;22.558;2022-09-03T06:05:18;5.50;;;3.03;;
34459;SDS011;20704;51.260;22.558;2022-09-03T06:07:44;10.80;;;3.88;;
34459;SDS011;20704;51.260;22.558;2022-09-03T06:10:14;6.47;;;2.97;;
34459;SDS011;20704;51.260;22.558;2022-09-03T06:12:42;5.38;;;3.72;;
34459;SDS011;20704;51.260;22.558;2022-09-03T06:15:14;9.77;;;3.35;;
34459;SDS011;20704;51.260;22.558;2022-09-03T06:17:41;6.57;;;4.70;;
34459;SDS011;20704;51.260;22.558;2022-09-03T06:20:08;8.23;;;5.30;;
34459;SDS011;20704;51.260;22.558;2022-09-03T06:22:34;7.18;;;4.45;;
34459;SDS011;20704;51.260;22.558;2022-09-03T06:25:00;7.30;;;4.45;;
34459;SDS011;20704;51.260;22.558;2022-09-03T06:27:27;7.50;;;4.78;;
34459;SDS011;20704;51.260;22.558;2022-09-03T06:29:53;10.23;;;4.53;;
34459;SDS011;20704;51.260;22.558;2022-09-03T06:32:19;7.75;;;4.25;;
34459;SDS011;20704;51.260;22.558;2022-09-03T06:34:45;7.18;;;3.90;;
34459;SDS011;20704;51.260;22.558;2022-09-03T06:37:11;8.43;;;4.00;;
34459;SDS011;20704;51.260;22.558;2022-09-03T06:39:37;6.80;;;3.65;;
34459;SDS011;20704;51.260;22.558;2022-09-03T06:42:03;9.18;;;3.35;;
34459;SDS011;20704;51.260;22.558;2022-09-03T06:44:34;4.65;;;3.08;;
34459;SDS011;20704;51.260;22.558;2022-09-03T06:47:00;7.22;;;3.38;;
34459;SDS011;20704;51.260;22.558;2022-09-03T06:49:26;6.80;;;2.75;;
34459;SDS011;20704;51.260;22.558;2022-09-03T06:51:52;9.70;;;3.40;;
34459;SDS011;20704;51.260;22.558;2022-09-03T06:54:18;10.60;;;3.42;;
34459;SDS011;20704;51.260;22.558;2022-09-03T06:56:44;7.60;;;3.55;;
34459;SDS011;20704;51.260;22.558;2022-09-03T06:59:11;9.75;;;4.15;;
34459;SDS011;20704;51.260;22.558;2022-09-03T07:01:39;8.18;;;3.67;;
34459;SDS011;20704;51.260;22.558;2022-09-03T07:04:06;7.50;;;4.13;;
34459;SDS011;20704;51.260;22.558;2022-09-03T07:06:37;7.97;;;4.00;;
34459;SDS011;20704;51.260;22.558;2022-09-03T07:09:05;5.90;;;3.53;;
34459;SDS011;20704;51.260;22.558;2022-09-03T07:11:32;6.35;;;2.95;;
34459;SDS011;20704;51.260;22.558;2022-09-03T07:14:00;9.32;;;3.28;;
34459;SDS011;20704;51.260;22.558;2022-09-03T07:16:32;6.03;;;3.20;;
34459;SDS011;20704;51.260;22.558;2022-09-03T07:19:00;12.60;;;2.90;;
34459;SDS011;20704;51.260;22.558;2022-09-03T07:21:29;9.55;;;3.90;;
34459;SDS011;20704;51.260;22.558;2022-09-03T07:23:58;9.13;;;2.95;;
34459;SDS011;20704;51.260;22.558;2022-09-03T07:26:28;7.90;;;3.42;;
34459;SDS011;20704;51.260;22.558;2022-09-03T07:28:56;9.38;;;3.65;;
34459;SDS011;20704;51.260;22.558;2022-09-03T07:31:24;7.88;;;3.75;;
34459;SDS011;20704;51.260;22.558;2022-09-03T07:33:52;5.93;;;2.50;;
34459;SDS011;20704;51.260;22.558;2022-09-03T07:36:24;5.15;;;2.65;;
34459;SDS011;20704;51.260;22.558;2022-09-03T07:38:55;6.28;;;2.53;;
34459;SDS011;20704;51.260;22.558;2022-09-03T07:41:22;4.13;;;2.20;;
34459;SDS011;20704;51.260;22.558;2022-09-03T07:43:50;5.80;;;2.75;;
34459;SDS011;20704;51.260;22.558;2022-09-03T07:46:18;5.68;;;2.58;;
34459;SDS011;20704;51.260;22.558;2022-09-03T07:48:49;4.20;;;2.55;;
34459;SDS011;20704;51.260;22.558;2022-09-03T07:51:17;5.60;;;2.38;;
34459;SDS011;20704;51.260;22.558;2022-09-03T07:53:45;4.40;;;1.58;;
34459;SDS011;20704;51.260;22.558;2022-09-03T07:56:12;3.90;;;1.70;;
34459;SDS011;20704;51.260;22.558;2022-09-03T07:58:40;3.58;;;2.03;;
34459;SDS011;20704;51.260;22.558;2022-09-03T08:01:08;6.30;;;2.58;;
34459;SDS011;20704;51.260;22.558;2022-09-03T08:03:36;4.10;;;1.70;;
34459;SDS011;20704;51.260;22.558;2022-09-03T08:06:04;5.93;;;2.17;;
34459;SDS011;20704;51.260;22.558;2022-09-03T08:08:32;5.47;;;1.77;;
34459;SDS011;20704;51.260;22.558;2022-09-03T08:11:06;5.63;;;1.58;;
34459;SDS011;20704;51.260;22.558;2022-09-03T08:13:52;1.95;;;1.15;;
34459;SDS011;20704;51.260;22.558;2022-09-03T08:16:29;4.63;;;1.88;;
34459;SDS011;20704;51.260;22.558;2022-09-03T08:18:56;4.22;;;2.42;;
34459;SDS011;20704;51.260;22.558;2022-09-03T08:21:23;2.60;;;1.52;;
34459;SDS011;20704;51.260;22.558;2022-09-03T08:23:51;1.90;;;1.50;;
34459;SDS011;20704;51.260;22.558;2022-09-03T08:26:19;4.63;;;1.87;;
34459;SDS011;20704;51.260;22.558;2022-09-03T08:28:46;4.57;;;1.40;;
34459;SDS011;20704;51.260;22.558;2022-09-03T08:31:14;3.00;;;1.33;;
34459;SDS011;20704;51.260;22.558;2022-09-03T08:33:44;7.30;;;1.60;;
34459;SDS011;20704;51.260;22.558;2022-09-03T08:36:28;8.27;;;1.70;;
34459;SDS011;20704;51.260;22.558;2022-09-03T08:38:56;3.80;;;1.27;;
34459;SDS011;20704;51.260;22.558;2022-09-03T08:47:22;2.53;;;1.50;;
34459;SDS011;20704;51.260;22.558;2022-09-03T08:52:49;3.92;;;1.92;;
34459;SDS011;20704;51.260;22.558;2022-09-03T08:55:35;2.47;;;1.45;;
34459;SDS011;20704;51.260;22.558;2022-09-03T08:58:14;5.50;;;1.60;;
34459;SDS011;20704;51.260;22.558;2022-09-03T09:06:31;6.38;;;3.70;;
34459;SDS011;20704;51.260;22.558;2022-09-03T09:21:15;13.27;;;4.38;;
34459;SDS011;20704;51.260;22.558;2022-09-03T09:23:46;6.10;;;3.60;;
34459;SDS011;20704;51.260;22.558;2022-09-03T09:26:17;7.47;;;3.30;;
34459;SDS011;20704;51.260;22.558;2022-09-03T09:28:46;9.20;;;3.35;;
34459;SDS011;20704;51.260;22.558;2022-09-03T09:31:26;6.80;;;4.28;;
34459;SDS011;20704;51.260;22.558;2022-09-03T09:34:00;10.60;;;4.68;;
34459;SDS011;20704;51.260;22.558;2022-09-03T09:36:31;12.45;;;5.10;;
34459;SDS011;20704;51.260;22.558;2022-09-03T09:39:13;8.88;;;4.40;;
34459;SDS011;20704;51.260;22.558;2022-09-03T09:41:57;8.07;;;5.07;;
34459;SDS011;20704;51.260;22.558;2022-09-03T09:44:26;11.98;;;5.18;;
34459;SDS011;20704;51.260;22.558;2022-09-03T09:47:00;13.30;;;5.85;;
34459;SDS011;20704;51.260;22.558;2022-09-03T09:52:13;9.65;;;5.80;;
34459;SDS011;20704;51.260;22.558;2022-09-03T09:54:41;9.80;;;4.97;;
34459;SDS011;20704;51.260;22.558;2022-09-03T09:57:14;13.23;;;5.72;;
34459;SDS011;20704;51.260;22.558;2022-09-03T09:59:42;8.77;;;5.63;;
34459;SDS011;20704;51.260;22.558;2022-09-03T10:02:18;11.13;;;5.25;;
34459;SDS011;20704;51.260;22.558;2022-09-03T10:04:51;8.80;;;5.30;;
34459;SDS011;20704;51.260;22.558;2022-09-03T10:07:30;18.58;;;5.78;;
34459;SDS011;20704;51.260;22.558;2022-09-03T10:17:48;6.97;;;3.83;;
34459;SDS011;20704;51.260;22.558;2022-09-03T10:20:38;8.15;;;4.40;;
34459;SDS011;20704;51.260;22.558;2022-09-03T10:23:25;7.40;;;4.13;;
34459;SDS011;20704;51.260;22.558;2022-09-03T10:28:41;5.80;;;2.95;;
34459;SDS011;20704;51.260;22.558;2022-09-03T10:34:08;8.57;;;3.83;;
34459;SDS011;20704;51.260;22.558;2022-09-03T10:39:22;13.35;;;3.65;;
34459;SDS011;20704;51.260;22.558;2022-09-03T10:47:17;7.10;;;3.25;;
34459;SDS011;20704;51.260;22.558;2022-09-03T11:07:24;8.23;;;4.25;;
34459;SDS011;20704;51.260;22.558;2022-09-03T11:09:58;7.53;;;4.32;;
34459;SDS011;20704;51.260;22.558;2022-09-03T11:12:37;8.02;;;4.15;;
34459;SDS011;20704;51.260;22.558;2022-09-03T11:20:49;7.47;;;4.30;;
34459;SDS011;20704;51.260;22.558;2022-09-03T11:23:19;6.35;;;4.45;;
34459;SDS011;20704;51.260;22.558;2022-09-03T11:25:53;15.10;;;5.03;;
34459;SDS011;20704;51.260;22.558;2022-09-03T11:34:28;8.70;;;3.78;;
34459;SDS011;20704;51.260;22.558;2022-09-03T11:37:15;6.45;;;4.10;;
34459;SDS011;20704;51.260;22.558;2022-09-03T11:39:43;8.30;;;4.60;;
34459;SDS011;20704;51.260;22.558;2022-09-03T11:42:25;6.72;;;4.75;;
34459;SDS011;20704;51.260;22.558;2022-09-03T11:44:58;11.00;;;5.68;;
34459;SDS011;20704;51.260;22.558;2022-09-03T11:47:38;11.52;;;4.40;;
34459;SDS011;20704;51.260;22.558;2022-09-03T11:50:14;10.85;;;4.82;;
34459;SDS011;20704;51.260;22.558;2022-09-03T11:52:45;8.38;;;3.90;;
34459;SDS011;20704;51.260;22.558;2022-09-03T11:55:23;4.15;;;2.63;;
34459;SDS011;20704;51.260;22.558;2022-09-03T11:57:50;11.20;;;3.22;;
34459;SDS011;20704;51.260;22.558;2022-09-03T12:00:17;5.32;;;3.30;;
34459;SDS011;20704;51.260;22.558;2022-09-03T12:02:51;15.50;;;3.90;;
34459;SDS011;20704;51.260;22.558;2022-09-03T12:19:52;7.50;;;3.50;;
34459;SDS011;20704;51.260;22.558;2022-09-03T12:22:21;9.63;;;3.90;;
34459;SDS011;20704;51.260;22.558;2022-09-03T12:24:50;5.90;;;3.75;;
34459;SDS011;20704;51.260;22.558;2022-09-03T12:27:18;5.88;;;3.08;;
34459;SDS011;20704;51.260;22.558;2022-09-03T12:29:50;7.13;;;3.47;;
34459;SDS011;20704;51.260;22.558;2022-09-03T12:32:22;3.85;;;3.13;;
34459;SDS011;20704;51.260;22.558;2022-09-03T12:34:48;4.80;;;2.97;;
34459;SDS011;20704;51.260;22.558;2022-09-03T12:37:22;4.50;;;2.97;;
34459;SDS011;20704;51.260;22.558;2022-09-03T12:39:50;5.22;;;2.90;;
34459;SDS011;20704;51.260;22.558;2022-09-03T12:42:24;7.90;;;3.35;;
34459;SDS011;20704;51.260;22.558;2022-09-03T12:44:52;4.95;;;2.70;;
34459;SDS011;20704;51.260;22.558;2022-09-03T12:47:20;4.45;;;2.90;;
34459;SDS011;20704;51.260;22.558;2022-09-03T12:49:49;2.37;;;2.00;;
34459;SDS011;20704;51.260;22.558;2022-09-03T12:52:18;4.33;;;2.27;;
34459;SDS011;20704;51.260;22.558;2022-09-03T12:55:03;7.13;;;1.65;;
34459;SDS011;20704;51.260;22.558;2022-09-03T12:57:56;3.30;;;2.00;;
34459;SDS011;20704;51.260;22.558;2022-09-03T13:00:31;5.68;;;2.05;;
34459;SDS011;20704;51.260;22.558;2022-09-03T13:05:33;5.30;;;2.03;;
34459;SDS011;20704;51.260;22.558;2022-09-03T13:08:02;4.78;;;2.42;;
34459;SDS011;20704;51.260;22.558;2022-09-03T13:10:33;7.55;;;2.67;;
34459;SDS011;20704;51.260;22.558;2022-09-03T13:13:16;5.95;;;1.95;;
34459;SDS011;20704;51.260;22.558;2022-09-03T13:24:08;3.58;;;1.80;;
34459;SDS011;20704;51.260;22.558;2022-09-03T13:27:03;2.30;;;1.50;;
34459;SDS011;20704;51.260;22.558;2022-09-03T13:29:55;3.03;;;1.65;;
34459;SDS011;20704;51.260;22.558;2022-09-03T13:41:08;2.95;;;1.33;;
34459;SDS011;20704;51.260;22.558;2022-09-03T13:43:40;2.22;;;1.25;;
34459;SDS011;20704;51.260;22.558;2022-09-03T13:46:23;6.97;;;1.73;;
34459;SDS011;20704;51.260;22.558;2022-09-03T13:52:26;5.57;;;1.40;;
34459;SDS011;20704;51.260;22.558;2022-09-03T13:54:57;3.30;;;1.80;;
34459;SDS011;20704;51.260;22.558;2022-09-03T14:00:48;3.50;;;1.60;;
34459;SDS011;20704;51.260;22.558;2022-09-03T14:16:58;3.33;;;1.80;;
34459;SDS011;20704;51.260;22.558;2022-09-03T14:19:47;4.35;;;2.15;;
34459;SDS011;20704;51.260;22.558;2022-09-03T14:22:56;5.10;;;2.17;;
34459;SDS011;20704;51.260;22.558;2022-09-03T14:25:21;8.02;;;2.15;;
34459;SDS011;20704;51.260;22.558;2022-09-03T14:27:49;9.35;;;2.83;;
34459;SDS011;20704;51.260;22.558;2022-09-03T14:30:17;6.18;;;2.47;;
34459;SDS011;20704;51.260;22.558;2022-09-03T14:33:06;5.43;;;2.72;;
34459;SDS011;20704;51.260;22.558;2022-09-03T14:38:52;2.95;;;2.08;;
34459;SDS011;20704;51.260;22.558;2022-09-03T14:41:31;3.75;;;2.38;;
34459;SDS011;20704;51.260;22.558;2022-09-03T14:44:31;3.35;;;2.30;;
34459;SDS011;20704;51.260;22.558;2022-09-03T14:47:15;7.00;;;2.20;;
34459;SDS011;20704;51.260;22.558;2022-09-03T15:01:09;5.20;;;1.90;;
34459;SDS011;20704;51.260;22.558;2022-09-03T15:03:44;3.92;;;2.33;;
34459;SDS011;20704;51.260;22.558;2022-09-03T15:06:46;5.25;;;3.15;;
34459;SDS011;20704;51.260;22.558;2022-09-03T15:09:34;5.78;;;2.22;;
34459;SDS011;20704;51.260;22.558;2022-09-03T15:12:22;4.20;;;2.63;;
34459;SDS011;20704;51.260;22.558;2022-09-03T15:15:18;3.78;;;2.03;;
34459;SDS011;20704;51.260;22.558;2022-09-03T15:20:51;9.63;;;2.47;;
34459;SDS011;20704;51.260;22.558;2022-09-03T15:32:01;4.75;;;2.20;;
34459;SDS011;20704;51.260;22.558;2022-09-03T15:37:16;3.25;;;2.20;;
34459;SDS011;20704;51.260;22.558;2022-09-03T15:40:00;3.42;;;1.75;;
34459;SDS011;20704;51.260;22.558;2022-09-03T15:42:49;3.63;;;2.03;;
34459;SDS011;20704;51.260;22.558;2022-09-03T15:45:32;7.38;;;1.77;;
34459;SDS011;20704;51.260;22.558;2022-09-03T15:48:04;5.00;;;1.85;;
34459;SDS011;20704;51.260;22.558;2022-09-03T15:50:38;6.07;;;1.95;;
34459;SDS011;20704;51.260;22.558;2022-09-03T15:53:19;3.05;;;2.13;;
34459;SDS011;20704;51.260;22.558;2022-09-03T15:59:37;4.07;;;2.42;;
34459;SDS011;20704;51.260;22.558;2022-09-03T16:04:54;7.63;;;2.55;;
34459;SDS011;20704;51.260;22.558;2022-09-03T16:15:57;7.53;;;2.90;;
34459;SDS011;20704;51.260;22.558;2022-09-03T16:18:30;6.35;;;2.47;;
34459;SDS011;20704;51.260;22.558;2022-09-03T16:23:52;5.75;;;2.75;;
34459;SDS011;20704;51.260;22.558;2022-09-03T16:26:26;13.05;;;3.70;;
34459;SDS011;20704;51.260;22.558;2022-09-03T16:29:07;4.28;;;2.67;;
34459;SDS011;20704;51.260;22.558;2022-09-03T16:40:10;4.65;;;2.28;;
34459;SDS011;20704;51.260;22.558;2022-09-03T16:42:44;8.68;;;2.50;;
34459;SDS011;20704;51.260;22.558;2022-09-03T16:48:36;4.00;;;2.15;;
34459;SDS011;20704;51.260;22.558;2022-09-03T17:07:53;4.82;;;2.58;;
34459;SDS011;20704;51.260;22.558;2022-09-03T17:10:51;6.57;;;2.72;;
34459;SDS011;20704;51.260;22.558;2022-09-03T17:13:56;6.38;;;3.05;;
34459;SDS011;20704;51.260;22.558;2022-09-03T17:16:41;6.70;;;3.13;;
34459;SDS011;20704;51.260;22.558;2022-09-03T17:25:37;7.55;;;3.65;;
34459;SDS011;20704;51.260;22.558;2022-09-03T17:30:56;6.57;;;3.97;;
34459;SDS011;20704;51.260;22.558;2022-09-03T17:33:34;9.18;;;3.95;;
34459;SDS011;20704;51.260;22.558;2022-09-03T17:36:25;8.40;;;4.07;;
34459;SDS011;20704;51.260;22.558;2022-09-03T17:39:08;11.77;;;4.03;;
34459;SDS011;20704;51.260;22.558;2022-09-03T17:41:52;8.43;;;3.47;;
34459;SDS011;20704;51.260;22.558;2022-09-03T17:54:57;6.80;;;3.70;;
34459;SDS011;20704;51.260;22.558;2022-09-03T17:57:29;5.80;;;3.42;;
34459;SDS011;20704;51.260;22.558;2022-09-03T18:00:04;6.97;;;3.92;;
34459;SDS011;20704;51.260;22.558;2022-09-03T18:13:20;11.60;;;4.85;;
34459;SDS011;20704;51.260;22.558;2022-09-03T18:16:06;14.93;;;4.43;;
34459;SDS011;20704;51.260;22.558;2022-09-03T18:18:41;8.38;;;4.55;;
34459;SDS011;20704;51.260;22.558;2022-09-03T18:21:22;8.45;;;4.93;;
34459;SDS011;20704;51.260;22.558;2022-09-03T18:27:13;6.65;;;4.00;;
34459;SDS011;20704;51.260;22.558;2022-09-03T18:30:11;6.07;;;4.25;;
34459;SDS011;20704;51.260;22.558;2022-09-03T18:32:58;8.32;;;4.13;;
34459;SDS011;20704;51.260;22.558;2022-09-03T18:35:43;6.63;;;3.92;;
34459;SDS011;20704;51.260;22.558;2022-09-03T18:38:29;9.65;;;4.20;;
34459;SDS011;20704;51.260;22.558;2022-09-03T18:52:58;7.40;;;4.57;;
34459;SDS011;20704;51.260;22.558;2022-09-03T19:01:54;17.48;;;5.00;;
34459;SDS011;20704;51.260;22.558;2022-09-03T19:13:38;8.68;;;5.45;;
34459;SDS011;20704;51.260;22.558;2022-09-03T19:22:38;8.20;;;5.22;;
34459;SDS011;20704;51.260;22.558;2022-09-03T19:25:25;10.50;;;5.35;;
34459;SDS011;20704;51.260;22.558;2022-09-03T19:28:23;8.60;;;5.38;;
34459;SDS011;20704;51.260;22.558;2022-09-03T19:34:45;10.13;;;5.80;;
34459;SDS011;20704;51.260;22.558;2022-09-03T19:38:04;8.20;;;5.43;;
34459;SDS011;20704;51.260;22.558;2022-09-03T19:44:07;12.00;;;5.78;;
34459;SDS011;20704;51.260;22.558;2022-09-03T19:47:35;10.95;;;6.15;;
34459;SDS011;20704;51.260;22.558;2022-09-03T19:50:31;9.35;;;5.53;;
34459;SDS011;20704;51.260;22.558;2022-09-03T19:53:21;15.98;;;6.68;;
34459;SDS011;20704;51.260;22.558;2022-09-03T19:56:14;10.30;;;6.45;;
34459;SDS011;20704;51.260;22.558;2022-09-03T19:59:08;10.98;;;6.32;;
34459;SDS011;20704;51.260;22.558;2022-09-03T20:02:03;10.18;;;5.97;;
34459;SDS011;20704;51.260;22.558;2022-09-03T20:07:44;13.30;;;6.63;;
34459;SDS011;20704;51.260;22.558;2022-09-03T20:10:32;9.10;;;6.07;;
34459;SDS011;20704;51.260;22.558;2022-09-03T20:18:39;11.90;;;7.22;;
34459;SDS011;20704;51.260;22.558;2022-09-03T20:24:11;12.18;;;7.35;;
34459;SDS011;20704;51.260;22.558;2022-09-03T20:30:02;9.02;;;6.55;;
34459;SDS011;20704;51.260;22.558;2022-09-03T20:32:43;10.23;;;6.35;;
34459;SDS011;20704;51.260;22.558;2022-09-03T20:35:17;10.85;;;6.88;;
34459;SDS011;20704;51.260;22.558;2022-09-03T21:00:11;10.63;;;6.57;;
34459;SDS011;20704;51.260;22.558;2022-09-03T21:05:36;14.05;;;5.82;;
34459;SDS011;20704;51.260;22.558;2022-09-03T21:11:07;9.85;;;6.07;;
34459;SDS011;20704;51.260;22.558;2022-09-03T21:13:41;12.80;;;5.65;;
34459;SDS011;20704;51.260;22.558;2022-09-03T21:27:44;8.45;;;5.63;;
34459;SDS011;20704;51.260;22.558;2022-09-03T21:30:35;11.23;;;5.07;;
34459;SDS011;20704;51.260;22.558;2022-09-03T21:33:05;11.23;;;6.38;;
34459;SDS011;20704;51.260;22.558;2022-09-03T21:35:40;10.10;;;5.85;;
34459;SDS011;20704;51.260;22.558;2022-09-03T21:38:16;14.73;;;5.65;;
34459;SDS011;20704;51.260;22.558;2022-09-03T21:40:53;9.95;;;5.50;;
34459;SDS011;20704;51.260;22.558;2022-09-03T21:43:34;12.20;;;6.50;;
34459;SDS011;20704;51.260;22.558;2022-09-03T21:46:26;12.68;;;5.07;;
34459;SDS011;20704;51.260;22.558;2022-09-03T21:49:04;9.27;;;4.85;;
34459;SDS011;20704;51.260;22.558;2022-09-03T21:51:42;8.43;;;6.07;;
34459;SDS011;20704;51.260;22.558;2022-09-03T21:54:17;9.57;;;5.50;;